sensor_id;sensor_type;location;lat;lon;timestamp;temperature;humidity
37984;DHT22;64625;50.882;4.376;2023-03-01T00:02:01;3.00;91.60
37984;DHT22;64625;50.882;4.376;2023-03-01T00:04:27;3.00;91.60
37984;DHT22;64625;50.882;4.376;2023-03-01T00:06:53;3.10;91.70
37984;DHT22;64625;50.882;4.376;2023-03-01T00:09:19;3.00;91.60
37984;DHT22;64625;50.882;4.376;2023-03-01T00:11:46;2.90;91.50
37984;DHT22;64625;50.882;4.376;2023-03-01T00:14:12;2.90;91.60
37984;DHT22;64625;50.882;4.376;2023-03-01T00:16:40;2.80;91.70
37984;DHT22;64625;50.882;4.376;2023-03-01T00:19:08;2.80;91.90
37984;DHT22;64625;50.882;4.376;2023-03-01T00:21:35;2.80;92.10
37984;DHT22;64625;50.882;4.376;2023-03-01T00:24:01;2.80;92.20
37984;DHT22;64625;50.882;4.376;2023-03-01T00:26:27;2.80;92.30
37984;DHT22;64625;50.882;4.376;2023-03-01T00:28:53;2.70;92.30
37984;DHT22;64625;50.882;4.376;2023-03-01T00:31:22;2.70;92.30
37984;DHT22;64625;50.882;4.376;2023-03-01T00:33:52;2.70;92.40
37984;DHT22;64625;50.882;4.376;2023-03-01T00:36:19;2.60;92.50
37984;DHT22;64625;50.882;4.376;2023-03-01T00:38:45;2.60;92.60
37984;DHT22;64625;50.882;4.376;2023-03-01T00:41:14;2.60;92.70
37984;DHT22;64625;50.882;4.376;2023-03-01T00:43:43;2.60;92.70
37984;DHT22;64625;50.882;4.376;2023-03-01T00:46:11;2.50;92.70
37984;DHT22;64625;50.882;4.376;2023-03-01T00:48:37;2.50;92.80
37984;DHT22;64625;50.882;4.376;2023-03-01T00:51:08;2.50;92.90
37984;DHT22;64625;50.882;4.376;2023-03-01T00:53:35;2.50;92.90
37984;DHT22;64625;50.882;4.376;2023-03-01T00:56:02;2.40;92.90
37984;DHT22;64625;50.882;4.376;2023-03-01T00:58:28;2.40;93.00
37984;DHT22;64625;50.882;4.376;2023-03-01T01:00:54;2.30;93.10
37984;DHT22;64625;50.882;4.376;2023-03-01T01:03:20;2.30;93.30
37984;DHT22;64625;50.882;4.376;2023-03-01T01:05:45;2.30;93.40
37984;DHT22;64625;50.882;4.376;2023-03-01T01:08:12;2.30;93.50
37984;DHT22;64625;50.882;4.376;2023-03-01T01:10:38;2.30;94.00
37984;DHT22;64625;50.882;4.376;2023-03-01T01:13:04;2.30;93.90
37984;DHT22;64625;50.882;4.376;2023-03-01T01:15:33;2.30;94.10
37984;DHT22;64625;50.882;4.376;2023-03-01T01:18:00;2.30;94.30
37984;DHT22;64625;50.882;4.376;2023-03-01T01:20:26;2.30;94.40
37984;DHT22;64625;50.882;4.376;2023-03-01T01:22:52;2.30;94.40
37984;DHT22;64625;50.882;4.376;2023-03-01T01:25:21;2.30;94.50
37984;DHT22;64625;50.882;4.376;2023-03-01T01:27:50;2.30;94.60
37984;DHT22;64625;50.882;4.376;2023-03-01T01:30:16;2.30;94.70
37984;DHT22;64625;50.882;4.376;2023-03-01T01:32:42;2.30;94.80
37984;DHT22;64625;50.882;4.376;2023-03-01T01:35:08;2.30;94.90
37984;DHT22;64625;50.882;4.376;2023-03-01T01:37:34;2.20;95.00
37984;DHT22;64625;50.882;4.376;2023-03-01T01:40:01;2.20;95.10
37984;DHT22;64625;50.882;4.376;2023-03-01T01:42:30;2.30;95.30
37984;DHT22;64625;50.882;4.376;2023-03-01T01:45:24;2.30;95.40
37984;DHT22;64625;50.882;4.376;2023-03-01T01:47:52;2.20;95.50
37984;DHT22;64625;50.882;4.376;2023-03-01T01:50:20;2.30;95.60
37984;DHT22;64625;50.882;4.376;2023-03-01T01:52:48;2.20;95.60
37984;DHT22;64625;50.882;4.376;2023-03-01T01:55:19;2.20;95.70
37984;DHT22;64625;50.882;4.376;2023-03-01T01:58:02;2.20;95.80
37984;DHT22;64625;50.882;4.376;2023-03-01T02:00:30;2.20;95.80
37984;DHT22;64625;50.882;4.376;2023-03-01T02:02:58;2.20;95.90
37984;DHT22;64625;50.882;4.376;2023-03-01T02:05:39;2.20;95.90
37984;DHT22;64625;50.882;4.376;2023-03-01T02:08:11;2.10;95.90
37984;DHT22;64625;50.882;4.376;2023-03-01T02:10:38;2.10;96.10
37984;DHT22;64625;50.882;4.376;2023-03-01T02:13:05;2.10;96.20
37984;DHT22;64625;50.882;4.376;2023-03-01T02:15:35;2.10;96.60
37984;DHT22;64625;50.882;4.376;2023-03-01T02:18:02;2.10;96.20
37984;DHT22;64625;50.882;4.376;2023-03-01T02:20:44;2.10;96.30
37984;DHT22;64625;50.882;4.376;2023-03-01T02:23:14;2.10;96.30
37984;DHT22;64625;50.882;4.376;2023-03-01T02:30:43;2.00;96.30
37984;DHT22;64625;50.882;4.376;2023-03-01T02:33:29;2.00;96.30
37984;DHT22;64625;50.882;4.376;2023-03-01T02:36:04;1.90;96.40
37984;DHT22;64625;50.882;4.376;2023-03-01T02:38:32;1.90;96.50
37984;DHT22;64625;50.882;4.376;2023-03-01T02:40:58;1.90;96.50
37984;DHT22;64625;50.882;4.376;2023-03-01T02:43:29;1.80;96.60
37984;DHT22;64625;50.882;4.376;2023-03-01T02:45:59;1.80;96.70
37984;DHT22;64625;50.882;4.376;2023-03-01T02:48:27;1.80;96.80
37984;DHT22;64625;50.882;4.376;2023-03-01T02:50:58;1.80;96.90
37984;DHT22;64625;50.882;4.376;2023-03-01T02:56:04;1.80;97.10
37984;DHT22;64625;50.882;4.376;2023-03-01T02:58:30;1.80;97.20
37984;DHT22;64625;50.882;4.376;2023-03-01T03:00:56;1.80;97.20
37984;DHT22;64625;50.882;4.376;2023-03-01T03:03:22;1.70;97.30
37984;DHT22;64625;50.882;4.376;2023-03-01T03:05:49;1.70;97.30
37984;DHT22;64625;50.882;4.376;2023-03-01T03:08:15;1.70;97.40
37984;DHT22;64625;50.882;4.376;2023-03-01T03:10:49;1.70;97.50
37984;DHT22;64625;50.882;4.376;2023-03-01T03:13:15;1.60;97.60
37984;DHT22;64625;50.882;4.376;2023-03-01T03:15:42;1.60;97.80
37984;DHT22;64625;50.882;4.376;2023-03-01T03:18:11;1.60;98.00
37984;DHT22;64625;50.882;4.376;2023-03-01T03:20:40;1.60;98.10
37984;DHT22;64625;50.882;4.376;2023-03-01T03:23:06;1.60;98.20
37984;DHT22;64625;50.882;4.376;2023-03-01T03:25:32;1.60;98.30
37984;DHT22;64625;50.882;4.376;2023-03-01T03:28:00;1.50;98.40
37984;DHT22;64625;50.882;4.376;2023-03-01T03:30:30;1.50;98.60
37984;DHT22;64625;50.882;4.376;2023-03-01T03:32:57;1.50;98.80
37984;DHT22;64625;50.882;4.376;2023-03-01T03:35:29;1.60;99.10
37984;DHT22;64625;50.882;4.376;2023-03-01T03:37:59;1.50;99.10
37984;DHT22;64625;50.882;4.376;2023-03-01T03:40:36;1.50;99.20
37984;DHT22;64625;50.882;4.376;2023-03-01T03:43:05;1.50;99.20
37984;DHT22;64625;50.882;4.376;2023-03-01T03:45:35;1.50;99.30
37984;DHT22;64625;50.882;4.376;2023-03-01T03:48:07;1.50;99.40
37984;DHT22;64625;50.882;4.376;2023-03-01T03:50:33;1.50;99.50
37984;DHT22;64625;50.882;4.376;2023-03-01T03:53:05;1.50;99.60
37984;DHT22;64625;50.882;4.376;2023-03-01T03:55:31;1.40;99.80
37984;DHT22;64625;50.882;4.376;2023-03-01T03:58:02;1.50;99.90
37984;DHT22;64625;50.882;4.376;2023-03-01T04:00:37;1.50;99.90
37984;DHT22;64625;50.882;4.376;2023-03-01T04:03:04;1.40;99.90
37984;DHT22;64625;50.882;4.376;2023-03-01T04:05:30;1.40;99.90
37984;DHT22;64625;50.882;4.376;2023-03-01T04:07:56;1.40;99.90
37984;DHT22;64625;50.882;4.376;2023-03-01T04:10:38;1.40;99.90
37984;DHT22;64625;50.882;4.376;2023-03-01T04:13:06;1.40;99.90
37984;DHT22;64625;50.882;4.376;2023-03-01T04:15:33;1.30;99.90
37984;DHT22;64625;50.882;4.376;2023-03-01T04:17:59;1.40;99.90
37984;DHT22;64625;50.882;4.376;2023-03-01T04:20:27;1.40;99.90
37984;DHT22;64625;50.882;4.376;2023-03-01T04:22:58;1.40;99.90
37984;DHT22;64625;50.882;4.376;2023-03-01T04:25:24;1.40;99.90
37984;DHT22;64625;50.882;4.376;2023-03-01T04:27:50;1.40;99.90
37984;DHT22;64625;50.882;4.376;2023-03-01T04:30:16;1.40;99.90
37984;DHT22;64625;50.882;4.376;2023-03-01T04:32:42;1.40;99.90
37984;DHT22;64625;50.882;4.376;2023-03-01T04:35:09;1.30;99.90
37984;DHT22;64625;50.882;4.376;2023-03-01T04:37:35;1.40;99.90
37984;DHT22;64625;50.882;4.376;2023-03-01T04:40:02;1.30;99.90
37984;DHT22;64625;50.882;4.376;2023-03-01T04:42:39;1.30;99.90
37984;DHT22;64625;50.882;4.376;2023-03-01T04:45:05;1.30;99.90
37984;DHT22;64625;50.882;4.376;2023-03-01T04:47:43;1.30;99.90
37984;DHT22;64625;50.882;4.376;2023-03-01T04:50:17;1.30;99.90
37984;DHT22;64625;50.882;4.376;2023-03-01T04:52:47;1.30;99.90
37984;DHT22;64625;50.882;4.376;2023-03-01T04:55:13;1.30;99.90
37984;DHT22;64625;50.882;4.376;2023-03-01T04:57:39;1.30;99.90
37984;DHT22;64625;50.882;4.376;2023-03-01T05:00:07;1.30;99.90
37984;DHT22;64625;50.882;4.376;2023-03-01T05:02:57;1.30;99.90
37984;DHT22;64625;50.882;4.376;2023-03-01T05:05:32;1.30;99.90
37984;DHT22;64625;50.882;4.376;2023-03-01T05:08:01;1.20;99.90
37984;DHT22;64625;50.882;4.376;2023-03-01T05:10:28;1.20;99.90
37984;DHT22;64625;50.882;4.376;2023-03-01T05:12:55;1.20;99.90
37984;DHT22;64625;50.882;4.376;2023-03-01T05:15:23;1.20;99.90
37984;DHT22;64625;50.882;4.376;2023-03-01T05:17:54;1.20;99.90
37984;DHT22;64625;50.882;4.376;2023-03-01T05:20:21;1.20;99.90
37984;DHT22;64625;50.882;4.376;2023-03-01T05:22:49;1.20;99.90
37984;DHT22;64625;50.882;4.376;2023-03-01T05:25:15;1.20;99.90
37984;DHT22;64625;50.882;4.376;2023-03-01T05:27:41;1.20;99.90
37984;DHT22;64625;50.882;4.376;2023-03-01T05:30:07;1.20;99.90
37984;DHT22;64625;50.882;4.376;2023-03-01T05:32:44;1.20;99.90
37984;DHT22;64625;50.882;4.376;2023-03-01T05:35:14;1.20;99.90
37984;DHT22;64625;50.882;4.376;2023-03-01T05:37:46;1.10;99.90
37984;DHT22;64625;50.882;4.376;2023-03-01T05:40:23;1.10;99.90
37984;DHT22;64625;50.882;4.376;2023-03-01T05:42:54;1.10;99.90
37984;DHT22;64625;50.882;4.376;2023-03-01T05:45:22;1.10;99.90
37984;DHT22;64625;50.882;4.376;2023-03-01T05:47:49;1.10;99.90
37984;DHT22;64625;50.882;4.376;2023-03-01T05:50:20;1.10;99.90
37984;DHT22;64625;50.882;4.376;2023-03-01T05:52:51;1.00;99.90
37984;DHT22;64625;50.882;4.376;2023-03-01T05:55:19;1.00;99.90
37984;DHT22;64625;50.882;4.376;2023-03-01T05:57:46;1.00;99.90
37984;DHT22;64625;50.882;4.376;2023-03-01T06:00:13;1.00;99.90
37984;DHT22;64625;50.882;4.376;2023-03-01T06:02:40;1.00;99.90
37984;DHT22;64625;50.882;4.376;2023-03-01T06:05:07;1.00;99.90
37984;DHT22;64625;50.882;4.376;2023-03-01T06:07:35;1.00;99.90
37984;DHT22;64625;50.882;4.376;2023-03-01T06:10:03;1.00;99.90
37984;DHT22;64625;50.882;4.376;2023-03-01T06:12:33;1.00;99.90
37984;DHT22;64625;50.882;4.376;2023-03-01T06:15:00;1.00;99.90
37984;DHT22;64625;50.882;4.376;2023-03-01T06:17:28;1.00;99.90
37984;DHT22;64625;50.882;4.376;2023-03-01T06:19:54;1.00;99.90
37984;DHT22;64625;50.882;4.376;2023-03-01T06:22:20;0.90;99.90
37984;DHT22;64625;50.882;4.376;2023-03-01T06:24:46;0.90;99.90
37984;DHT22;64625;50.882;4.376;2023-03-01T06:27:11;0.90;99.90
37984;DHT22;64625;50.882;4.376;2023-03-01T06:29:37;0.90;99.90
37984;DHT22;64625;50.882;4.376;2023-03-01T06:32:03;0.90;99.90
37984;DHT22;64625;50.882;4.376;2023-03-01T06:34:29;0.90;99.90
37984;DHT22;64625;50.882;4.376;2023-03-01T06:36:55;0.90;99.90
37984;DHT22;64625;50.882;4.376;2023-03-01T06:39:21;0.90;99.90
37984;DHT22;64625;50.882;4.376;2023-03-01T06:41:47;0.90;99.90
37984;DHT22;64625;50.882;4.376;2023-03-01T06:44:13;0.90;99.90
37984;DHT22;64625;50.882;4.376;2023-03-01T06:46:39;0.90;99.90
37984;DHT22;64625;50.882;4.376;2023-03-01T06:49:06;0.90;99.90
37984;DHT22;64625;50.882;4.376;2023-03-01T06:51:36;0.90;99.90
37984;DHT22;64625;50.882;4.376;2023-03-01T06:54:06;0.90;99.90
37984;DHT22;64625;50.882;4.376;2023-03-01T06:56:32;0.90;99.90
37984;DHT22;64625;50.882;4.376;2023-03-01T06:58:58;0.90;99.90
37984;DHT22;64625;50.882;4.376;2023-03-01T07:01:24;0.90;99.90
37984;DHT22;64625;50.882;4.376;2023-03-01T07:03:50;0.90;99.90
37984;DHT22;64625;50.882;4.376;2023-03-01T07:06:16;0.90;99.90
37984;DHT22;64625;50.882;4.376;2023-03-01T07:08:45;0.90;99.90
37984;DHT22;64625;50.882;4.376;2023-03-01T07:11:11;0.90;99.90
37984;DHT22;64625;50.882;4.376;2023-03-01T07:13:37;1.00;99.90
37984;DHT22;64625;50.882;4.376;2023-03-01T07:16:04;1.00;99.90
37984;DHT22;64625;50.882;4.376;2023-03-01T07:18:29;1.00;99.90
37984;DHT22;64625;50.882;4.376;2023-03-01T07:20:55;1.00;99.90
37984;DHT22;64625;50.882;4.376;2023-03-01T07:23:21;1.00;99.90
37984;DHT22;64625;50.882;4.376;2023-03-01T07:25:54;1.00;99.90
37984;DHT22;64625;50.882;4.376;2023-03-01T07:28:20;1.00;99.90
37984;DHT22;64625;50.882;4.376;2023-03-01T07:30:47;1.10;99.90
37984;DHT22;64625;50.882;4.376;2023-03-01T07:33:13;1.10;99.90
37984;DHT22;64625;50.882;4.376;2023-03-01T07:35:39;1.20;99.90
37984;DHT22;64625;50.882;4.376;2023-03-01T07:38:05;1.10;99.90
37984;DHT22;64625;50.882;4.376;2023-03-01T07:40:31;1.20;99.90
37984;DHT22;64625;50.882;4.376;2023-03-01T07:42:57;1.30;99.90
37984;DHT22;64625;50.882;4.376;2023-03-01T07:45:24;1.30;99.90
37984;DHT22;64625;50.882;4.376;2023-03-01T07:47:52;1.30;99.90
37984;DHT22;64625;50.882;4.376;2023-03-01T07:50:18;1.40;99.90
37984;DHT22;64625;50.882;4.376;2023-03-01T07:52:45;1.50;99.90
37984;DHT22;64625;50.882;4.376;2023-03-01T07:55:12;1.50;99.90
37984;DHT22;64625;50.882;4.376;2023-03-01T07:57:38;1.60;99.90
37984;DHT22;64625;50.882;4.376;2023-03-01T08:00:06;1.70;99.90
37984;DHT22;64625;50.882;4.376;2023-03-01T08:02:32;1.70;99.90
37984;DHT22;64625;50.882;4.376;2023-03-01T08:04:58;1.80;99.90
37984;DHT22;64625;50.882;4.376;2023-03-01T08:07:24;1.90;99.90
37984;DHT22;64625;50.882;4.376;2023-03-01T08:09:50;2.00;99.90
37984;DHT22;64625;50.882;4.376;2023-03-01T08:12:16;2.00;99.90
37984;DHT22;64625;50.882;4.376;2023-03-01T08:14:43;2.10;99.90
37984;DHT22;64625;50.882;4.376;2023-03-01T08:17:09;2.10;99.90
37984;DHT22;64625;50.882;4.376;2023-03-01T08:19:35;2.20;99.90
37984;DHT22;64625;50.882;4.376;2023-03-01T08:22:02;2.20;99.90
37984;DHT22;64625;50.882;4.376;2023-03-01T08:24:28;2.30;99.90
37984;DHT22;64625;50.882;4.376;2023-03-01T08:26:54;2.40;99.90
37984;DHT22;64625;50.882;4.376;2023-03-01T08:29:21;2.40;99.90
37984;DHT22;64625;50.882;4.376;2023-03-01T08:31:47;2.50;99.90
37984;DHT22;64625;50.882;4.376;2023-03-01T08:34:15;2.50;99.90
37984;DHT22;64625;50.882;4.376;2023-03-01T08:36:45;2.60;99.90
37984;DHT22;64625;50.882;4.376;2023-03-01T08:39:13;2.70;99.90
37984;DHT22;64625;50.882;4.376;2023-03-01T08:41:40;2.70;99.90
37984;DHT22;64625;50.882;4.376;2023-03-01T08:44:07;2.80;99.90
37984;DHT22;64625;50.882;4.376;2023-03-01T08:46:36;2.90;99.90
37984;DHT22;64625;50.882;4.376;2023-03-01T08:49:14;2.90;99.90
37984;DHT22;64625;50.882;4.376;2023-03-01T08:51:41;3.00;99.90
37984;DHT22;64625;50.882;4.376;2023-03-01T08:54:12;3.10;99.90
37984;DHT22;64625;50.882;4.376;2023-03-01T08:56:38;3.20;99.90
37984;DHT22;64625;50.882;4.376;2023-03-01T08:59:04;3.20;99.90
37984;DHT22;64625;50.882;4.376;2023-03-01T09:01:30;3.20;99.90
37984;DHT22;64625;50.882;4.376;2023-03-01T09:03:56;3.30;99.90
37984;DHT22;64625;50.882;4.376;2023-03-01T09:06:22;3.40;99.90
37984;DHT22;64625;50.882;4.376;2023-03-01T09:08:50;3.50;99.90
37984;DHT22;64625;50.882;4.376;2023-03-01T09:11:20;3.50;99.90
37984;DHT22;64625;50.882;4.376;2023-03-01T09:13:48;3.60;99.90
37984;DHT22;64625;50.882;4.376;2023-03-01T09:16:16;3.60;99.90
37984;DHT22;64625;50.882;4.376;2023-03-01T09:18:43;3.70;99.90
37984;DHT22;64625;50.882;4.376;2023-03-01T09:21:16;3.80;99.90
37984;DHT22;64625;50.882;4.376;2023-03-01T09:23:47;3.80;99.90
37984;DHT22;64625;50.882;4.376;2023-03-01T09:26:16;3.90;99.90
37984;DHT22;64625;50.882;4.376;2023-03-01T09:28:42;4.00;99.90
37984;DHT22;64625;50.882;4.376;2023-03-01T09:31:10;4.10;99.90
37984;DHT22;64625;50.882;4.376;2023-03-01T09:33:39;4.10;99.90
37984;DHT22;64625;50.882;4.376;2023-03-01T09:36:08;4.20;99.90
37984;DHT22;64625;50.882;4.376;2023-03-01T09:38:36;4.30;99.90
37984;DHT22;64625;50.882;4.376;2023-03-01T09:41:02;4.30;99.90
37984;DHT22;64625;50.882;4.376;2023-03-01T09:43:35;4.40;99.90
37984;DHT22;64625;50.882;4.376;2023-03-01T09:46:08;4.40;99.90
37984;DHT22;64625;50.882;4.376;2023-03-01T09:48:50;4.50;99.90
37984;DHT22;64625;50.882;4.376;2023-03-01T09:51:34;4.50;99.90
37984;DHT22;64625;50.882;4.376;2023-03-01T09:54:02;4.60;99.90
37984;DHT22;64625;50.882;4.376;2023-03-01T09:56:43;4.60;99.90
37984;DHT22;64625;50.882;4.376;2023-03-01T09:59:18;4.70;99.90
37984;DHT22;64625;50.882;4.376;2023-03-01T10:01:58;4.80;99.90
37984;DHT22;64625;50.882;4.376;2023-03-01T10:04:32;4.80;99.90
37984;DHT22;64625;50.882;4.376;2023-03-01T10:09:40;5.00;99.90
37984;DHT22;64625;50.882;4.376;2023-03-01T10:12:17;5.00;99.90
37984;DHT22;64625;50.882;4.376;2023-03-01T10:17:55;5.10;99.90
37984;DHT22;64625;50.882;4.376;2023-03-01T10:20:41;5.20;99.90
37984;DHT22;64625;50.882;4.376;2023-03-01T10:23:09;5.20;99.90
37984;DHT22;64625;50.882;4.376;2023-03-01T10:28:20;5.30;99.90
37984;DHT22;64625;50.882;4.376;2023-03-01T10:30:50;5.40;99.90
37984;DHT22;64625;50.882;4.376;2023-03-01T10:33:32;5.40;99.90
37984;DHT22;64625;50.882;4.376;2023-03-01T10:36:10;5.40;99.50
37984;DHT22;64625;50.882;4.376;2023-03-01T10:38:59;5.50;99.70
37984;DHT22;64625;50.882;4.376;2023-03-01T10:41:29;5.60;99.80
37984;DHT22;64625;50.882;4.376;2023-03-01T10:43:58;5.60;99.70
37984;DHT22;64625;50.882;4.376;2023-03-01T10:51:43;5.80;98.90
37984;DHT22;64625;50.882;4.376;2023-03-01T10:56:53;6.00;98.30
37984;DHT22;64625;50.882;4.376;2023-03-01T10:59:28;6.00;98.40
37984;DHT22;64625;50.882;4.376;2023-03-01T11:02:26;6.10;97.50
37984;DHT22;64625;50.882;4.376;2023-03-01T11:07:56;6.20;95.90
37984;DHT22;64625;50.882;4.376;2023-03-01T11:10:36;6.20;96.20
37984;DHT22;64625;50.882;4.376;2023-03-01T11:13:16;6.20;95.90
37984;DHT22;64625;50.882;4.376;2023-03-01T11:15:43;6.30;95.70
37984;DHT22;64625;50.882;4.376;2023-03-01T11:18:21;6.40;96.00
37984;DHT22;64625;50.882;4.376;2023-03-01T11:20:50;6.50;96.00
37984;DHT22;64625;50.882;4.376;2023-03-01T11:23:18;6.50;96.10
37984;DHT22;64625;50.882;4.376;2023-03-01T11:25:55;6.60;95.40
37984;DHT22;64625;50.882;4.376;2023-03-01T11:28:22;6.60;94.70
37984;DHT22;64625;50.882;4.376;2023-03-01T11:33:40;6.70;94.70
37984;DHT22;64625;50.882;4.376;2023-03-01T11:38:41;6.90;94.60
37984;DHT22;64625;50.882;4.376;2023-03-01T11:41:15;6.90;94.50
37984;DHT22;64625;50.882;4.376;2023-03-01T11:43:54;7.00;93.80
37984;DHT22;64625;50.882;4.376;2023-03-01T11:49:30;7.20;93.50
37984;DHT22;64625;50.882;4.376;2023-03-01T11:55:04;7.30;93.50
37984;DHT22;64625;50.882;4.376;2023-03-01T12:00:38;7.40;93.00
37984;DHT22;64625;50.882;4.376;2023-03-01T12:03:38;7.50;92.40
37984;DHT22;64625;50.882;4.376;2023-03-01T12:06:27;7.60;92.70
37984;DHT22;64625;50.882;4.376;2023-03-01T12:12:26;7.60;91.30
37984;DHT22;64625;50.882;4.376;2023-03-01T12:31:20;8.00;90.20
37984;DHT22;64625;50.882;4.376;2023-03-01T12:48:06;8.40;88.70
37984;DHT22;64625;50.882;4.376;2023-03-01T12:50:47;8.50;86.90
37984;DHT22;64625;50.882;4.376;2023-03-01T12:53:35;8.50;85.70
37984;DHT22;64625;50.882;4.376;2023-03-01T12:56:06;8.50;82.70
37984;DHT22;64625;50.882;4.376;2023-03-01T13:01:31;8.50;83.40
37984;DHT22;64625;50.882;4.376;2023-03-01T13:09:49;8.70;82.80
37984;DHT22;64625;50.882;4.376;2023-03-01T13:15:25;8.80;82.40
37984;DHT22;64625;50.882;4.376;2023-03-01T13:33:50;9.10;81.00
37984;DHT22;64625;50.882;4.376;2023-03-01T13:46:44;9.00;76.00
37984;DHT22;64625;50.882;4.376;2023-03-01T13:49:16;9.10;77.00
37984;DHT22;64625;50.882;4.376;2023-03-01T13:51:46;9.10;76.80
37984;DHT22;64625;50.882;4.376;2023-03-01T13:54:15;9.10;77.00
37984;DHT22;64625;50.882;4.376;2023-03-01T13:56:41;9.20;77.60
37984;DHT22;64625;50.882;4.376;2023-03-01T13:59:19;9.20;77.10
37984;DHT22;64625;50.882;4.376;2023-03-01T14:01:53;9.20;76.00
37984;DHT22;64625;50.882;4.376;2023-03-01T14:06:48;9.30;76.10
37984;DHT22;64625;50.882;4.376;2023-03-01T14:09:23;9.30;75.60
37984;DHT22;64625;50.882;4.376;2023-03-01T14:14:48;9.40;73.40
37984;DHT22;64625;50.882;4.376;2023-03-01T14:20:03;9.40;74.50
37984;DHT22;64625;50.882;4.376;2023-03-01T14:22:35;9.40;75.10
37984;DHT22;64625;50.882;4.376;2023-03-01T14:25:17;9.50;74.90
37984;DHT22;64625;50.882;4.376;2023-03-01T14:27:58;9.50;74.90
37984;DHT22;64625;50.882;4.376;2023-03-01T14:30:36;9.50;75.10
37984;DHT22;64625;50.882;4.376;2023-03-01T14:33:28;9.50;75.10
37984;DHT22;64625;50.882;4.376;2023-03-01T14:36:03;9.60;74.60
37984;DHT22;64625;50.882;4.376;2023-03-01T14:38:43;9.60;74.60
37984;DHT22;64625;50.882;4.376;2023-03-01T14:41:27;9.50;74.40
37984;DHT22;64625;50.882;4.376;2023-03-01T14:44:01;9.60;75.10
37984;DHT22;64625;50.882;4.376;2023-03-01T14:46:34;9.60;75.60
37984;DHT22;64625;50.882;4.376;2023-03-01T14:49:25;9.60;74.60
37984;DHT22;64625;50.882;4.376;2023-03-01T14:52:07;9.60;73.60
37984;DHT22;64625;50.882;4.376;2023-03-01T14:54:46;9.60;74.00
37984;DHT22;64625;50.882;4.376;2023-03-01T14:57:19;9.60;74.50
37984;DHT22;64625;50.882;4.376;2023-03-01T14:59:50;9.60;74.60
37984;DHT22;64625;50.882;4.376;2023-03-01T15:02:21;9.60;75.10
37984;DHT22;64625;50.882;4.376;2023-03-01T15:04:50;9.60;73.80
37984;DHT22;64625;50.882;4.376;2023-03-01T15:07:17;9.60;73.00
37984;DHT22;64625;50.882;4.376;2023-03-01T15:09:44;9.60;72.60
37984;DHT22;64625;50.882;4.376;2023-03-01T15:12:37;9.50;72.10
37984;DHT22;64625;50.882;4.376;2023-03-01T15:15:21;9.50;71.40
37984;DHT22;64625;50.882;4.376;2023-03-01T15:17:52;9.50;71.60
37984;DHT22;64625;50.882;4.376;2023-03-01T15:20:23;9.50;71.50
37984;DHT22;64625;50.882;4.376;2023-03-01T15:22:52;9.50;71.80
37984;DHT22;64625;50.882;4.376;2023-03-01T15:25:20;9.40;72.00
37984;DHT22;64625;50.882;4.376;2023-03-01T15:27:48;9.50;72.80
37984;DHT22;64625;50.882;4.376;2023-03-01T15:30:26;9.50;72.70
37984;DHT22;64625;50.882;4.376;2023-03-01T15:35:53;9.50;73.00
37984;DHT22;64625;50.882;4.376;2023-03-01T15:38:49;9.50;73.40
37984;DHT22;64625;50.882;4.376;2023-03-01T15:41:46;9.50;73.10
37984;DHT22;64625;50.882;4.376;2023-03-01T15:44:39;9.50;72.50
37984;DHT22;64625;50.882;4.376;2023-03-01T15:49:52;9.50;72.40
37984;DHT22;64625;50.882;4.376;2023-03-01T15:52:27;9.40;73.00
37984;DHT22;64625;50.882;4.376;2023-03-01T15:55:01;9.40;72.70
37984;DHT22;64625;50.882;4.376;2023-03-01T15:57:28;9.40;72.60
37984;DHT22;64625;50.882;4.376;2023-03-01T15:59:55;9.30;71.50
37984;DHT22;64625;50.882;4.376;2023-03-01T16:02:22;9.30;71.50
37984;DHT22;64625;50.882;4.376;2023-03-01T16:04:48;9.20;71.50
37984;DHT22;64625;50.882;4.376;2023-03-01T16:07:14;9.20;71.80
37984;DHT22;64625;50.882;4.376;2023-03-01T16:09:40;9.20;72.30
37984;DHT22;64625;50.882;4.376;2023-03-01T16:12:14;9.20;72.90
37984;DHT22;64625;50.882;4.376;2023-03-01T16:14:41;9.10;72.90
37984;DHT22;64625;50.882;4.376;2023-03-01T16:17:07;9.10;72.80
37984;DHT22;64625;50.882;4.376;2023-03-01T16:19:36;9.10;72.80
37984;DHT22;64625;50.882;4.376;2023-03-01T16:22:03;9.10;72.70
37984;DHT22;64625;50.882;4.376;2023-03-01T16:24:29;9.00;72.80
37984;DHT22;64625;50.882;4.376;2023-03-01T16:26:55;9.00;72.70
37984;DHT22;64625;50.882;4.376;2023-03-01T16:29:21;9.00;72.20
37984;DHT22;64625;50.882;4.376;2023-03-01T16:31:47;8.90;72.10
37984;DHT22;64625;50.882;4.376;2023-03-01T16:34:13;8.90;72.00
37984;DHT22;64625;50.882;4.376;2023-03-01T16:36:39;8.80;72.50
37984;DHT22;64625;50.882;4.376;2023-03-01T16:39:06;8.70;72.80
37984;DHT22;64625;50.882;4.376;2023-03-01T16:41:33;8.70;73.10
37984;DHT22;64625;50.882;4.376;2023-03-01T16:43:59;8.70;72.80
37984;DHT22;64625;50.882;4.376;2023-03-01T16:46:27;8.70;73.20
37984;DHT22;64625;50.882;4.376;2023-03-01T16:48:54;8.60;73.40
37984;DHT22;64625;50.882;4.376;2023-03-01T16:51:22;8.60;73.10
37984;DHT22;64625;50.882;4.376;2023-03-01T16:53:49;8.50;73.10
37984;DHT22;64625;50.882;4.376;2023-03-01T16:56:17;8.50;73.40
37984;DHT22;64625;50.882;4.376;2023-03-01T16:58:43;8.50;73.60
37984;DHT22;64625;50.882;4.376;2023-03-01T17:01:13;8.40;73.70
37984;DHT22;64625;50.882;4.376;2023-03-01T17:03:40;8.40;73.80
37984;DHT22;64625;50.882;4.376;2023-03-01T17:06:12;8.30;73.70
37984;DHT22;64625;50.882;4.376;2023-03-01T17:08:39;8.30;73.60
37984;DHT22;64625;50.882;4.376;2023-03-01T17:11:14;8.30;73.90
37984;DHT22;64625;50.882;4.376;2023-03-01T17:13:41;8.20;73.80
37984;DHT22;64625;50.882;4.376;2023-03-01T17:16:10;8.20;73.90
37984;DHT22;64625;50.882;4.376;2023-03-01T17:18:37;8.20;73.90
37984;DHT22;64625;50.882;4.376;2023-03-01T17:21:04;8.10;73.90
37984;DHT22;64625;50.882;4.376;2023-03-01T17:23:31;8.10;74.00
37984;DHT22;64625;50.882;4.376;2023-03-01T17:25:58;8.00;74.00
37984;DHT22;64625;50.882;4.376;2023-03-01T17:28:26;8.00;74.20
37984;DHT22;64625;50.882;4.376;2023-03-01T17:30:52;7.90;74.50
37984;DHT22;64625;50.882;4.376;2023-03-01T17:33:18;7.90;74.60
37984;DHT22;64625;50.882;4.376;2023-03-01T17:35:46;7.90;74.50
37984;DHT22;64625;50.882;4.376;2023-03-01T17:38:13;7.80;74.50
37984;DHT22;64625;50.882;4.376;2023-03-01T17:40:48;7.80;74.40
37984;DHT22;64625;50.882;4.376;2023-03-01T17:43:16;7.70;74.60
37984;DHT22;64625;50.882;4.376;2023-03-01T17:45:43;7.70;75.00
37984;DHT22;64625;50.882;4.376;2023-03-01T17:48:14;7.70;75.10
37984;DHT22;64625;50.882;4.376;2023-03-01T17:50:40;7.60;75.20
37984;DHT22;64625;50.882;4.376;2023-03-01T17:53:07;7.60;75.40
37984;DHT22;64625;50.882;4.376;2023-03-01T17:55:41;7.50;75.30
37984;DHT22;64625;50.882;4.376;2023-03-01T17:58:09;7.50;75.40
37984;DHT22;64625;50.882;4.376;2023-03-01T18:00:36;7.50;75.70
37984;DHT22;64625;50.882;4.376;2023-03-01T18:03:02;7.50;76.10
37984;DHT22;64625;50.882;4.376;2023-03-01T18:05:32;7.40;76.20
37984;DHT22;64625;50.882;4.376;2023-03-01T18:07:58;7.40;76.40
37984;DHT22;64625;50.882;4.376;2023-03-01T18:10:24;7.40;76.50